createdAt,value
2018-09-22T00:00:19.996Z,148204.20
2018-09-22T00:02:50.162Z,148216.69
2018-09-22T00:05:20.485Z,148209.22
2018-09-22T00:07:50.688Z,148204.20
2018-09-22T00:10:20.906Z,148202.97
2018-09-22T00:12:51.311Z,148176.86
2018-09-22T00:15:21.769Z,148166.91
2018-09-22T00:17:51.883Z,148143.25
2018-09-22T00:20:23.241Z,148156.92
2018-09-22T00:22:53.835Z,148154.44
2018-09-22T00:25:24.149Z,148132.06
2018-09-22T00:27:54.060Z,148127.09
2018-09-22T00:30:24.313Z,148119.64
2018-09-22T00:32:54.500Z,148154.44
2018-09-22T00:35:24.650Z,148156.92
2018-09-22T00:37:54.674Z,148148.22
2018-09-22T00:40:24.869Z,148138.28
2018-09-22T00:42:55.092Z,148128.34
2018-09-22T00:45:25.305Z,148119.64
2018-09-22T00:47:55.431Z,148103.44
2018-09-22T00:50:25.479Z,148112.19
2018-09-22T00:52:55.696Z,148087.28
2018-09-22T00:55:26.764Z,148082.31
2018-09-22T00:57:56.862Z,148082.31
2018-09-22T01:00:27.126Z,148104.67
2018-09-22T01:02:57.422Z,148081.06
2018-09-22T01:05:27.659Z,148087.28
2018-09-22T01:07:57.865Z,148088.52
2018-09-22T01:10:29.981Z,148089.77
2018-09-22T01:13:00.164Z,148092.25
2018-09-22T01:15:30.871Z,148103.44
2018-09-22T01:18:01.006Z,148097.22
2018-09-22T01:20:32.612Z,148084.80
2018-09-22T01:23:02.925Z,148089.77
2018-09-22T01:25:33.525Z,148092.25
2018-09-22T01:28:03.853Z,148115.91
2018-09-22T01:30:35.960Z,148122.13
2018-09-22T01:33:05.950Z,148132.06
2018-09-22T01:35:38.326Z,148107.16
2018-09-22T01:38:08.760Z,148084.80
2018-09-22T01:40:39.320Z,148068.64
2018-09-22T01:43:09.509Z,148071.13
2018-09-22T01:45:40.142Z,148073.61
2018-09-22T01:48:10.367Z,148084.80
2018-09-22T01:50:40.676Z,148088.52
2018-09-22T01:53:10.697Z,148078.58
2018-09-22T01:55:40.923Z,148076.09
2018-09-22T01:58:11.210Z,148077.34
2018-09-22T02:00:41.640Z,148072.37
2018-09-22T02:03:11.721Z,148068.64
2018-09-22T02:05:41.961Z,148067.41
2018-09-22T02:08:13.092Z,148082.31
2018-09-22T02:10:43.432Z,148062.38
2018-09-22T02:13:13.550Z,148059.89
2018-09-22T02:15:43.695Z,148061.14
2018-09-22T02:18:13.685Z,148077.34
2018-09-22T02:20:44.717Z,148078.58
2018-09-22T02:23:14.777Z,148094.73
2018-09-22T02:25:44.947Z,148071.13
2018-09-22T02:28:15.067Z,148052.44
2018-09-22T02:30:45.695Z,148047.42
2018-09-22T02:33:16.332Z,148067.41
2018-09-22T02:35:47.472Z,148084.80
2018-09-22T02:38:17.554Z,148077.34
2018-09-22T02:40:47.699Z,148049.95
2018-09-22T02:43:17.762Z,148022.56
2018-09-22T02:45:48.787Z,148012.58
2018-09-22T02:48:19.098Z,148001.41
2018-09-22T02:50:49.423Z,148022.56
2018-09-22T02:53:19.659Z,148011.34
2018-09-22T02:55:49.815Z,148002.64
2018-09-22T02:58:20.171Z,148002.64
2018-09-22T03:00:51.200Z,147979.03
2018-09-22T03:03:22.026Z,147962.84
2018-09-22T03:05:53.013Z,148002.64
2018-09-22T03:08:24.026Z,148006.38
2018-09-22T03:10:54.277Z,148007.61
2018-09-22T03:13:24.357Z,147998.92
2018-09-22T03:15:54.386Z,147976.55
2018-09-22T03:18:28.514Z,147970.34
2018-09-22T03:21:00.036Z,147986.50
2018-09-22T03:23:30.185Z,147985.25
2018-09-22T03:26:01.162Z,147971.58
2018-09-22T03:28:31.760Z,147955.39
2018-09-22T03:31:03.472Z,147949.19
2018-09-22T03:33:33.674Z,147957.88
2018-09-22T03:36:03.689Z,147987.73
2018-09-22T03:38:33.698Z,147977.80
2018-09-22T03:41:03.951Z,147965.33
2018-09-22T03:43:33.983Z,147951.66
2018-09-22T03:46:04.034Z,147946.69
2018-09-22T03:48:34.056Z,147939.25
2018-09-22T03:51:04.529Z,147941.72
2018-09-22T03:53:34.689Z,147951.66
2018-09-22T03:56:04.916Z,147949.19
2018-09-22T03:58:34.994Z,147964.09
2018-09-22T04:01:06.115Z,147962.84
2018-09-22T04:03:36.060Z,147952.91
2018-09-22T04:06:05.966Z,147967.81
2018-09-22T04:08:37.088Z,147990.22
2018-09-22T04:11:07.224Z,148007.61
2018-09-22T04:13:38.369Z,148031.27
2018-09-22T04:16:08.442Z,148042.45
2018-09-22T04:18:38.678Z,148067.41
2018-09-22T04:21:09.002Z,148099.70
2018-09-22T04:23:39.066Z,148139.52
2018-09-22T04:26:09.401Z,148181.83
2018-09-22T04:28:39.512Z,148216.69
2018-09-22T04:31:11.914Z,148261.50
2018-09-22T04:33:42.272Z,148297.59
2018-09-22T04:36:12.367Z,148326.25
2018-09-22T04:38:42.408Z,148371.06
2018-09-22T04:41:12.582Z,148407.19
2018-09-22T04:43:44.017Z,148453.25
2018-09-22T04:46:14.300Z,148486.84
2018-09-22T04:48:44.536Z,148525.52
2018-09-22T04:51:14.945Z,148575.34
2018-09-22T04:53:45.091Z,148618.94
2018-09-22T04:56:15.427Z,148647.63
2018-09-22T04:58:45.936Z,148709.91
2018-09-22T05:01:16.263Z,148799.70
2018-09-22T05:03:46.280Z,148900.67
2018-09-22T05:06:16.376Z,149010.50
2018-09-22T05:08:47.342Z,149191.41
2018-09-22T05:11:17.439Z,149368.72
2018-09-22T05:13:47.604Z,149651.03
2018-09-22T05:16:17.588Z,149609.80
2018-09-22T05:18:48.400Z,149731.08
2018-09-22T05:21:19.379Z,149897.34
2018-09-22T05:23:49.982Z,149932.37
2018-09-22T05:26:20.335Z,149927.38
2018-09-22T05:28:50.641Z,150102.53
2018-09-22T05:31:20.780Z,150357.89
2018-09-22T05:33:51.141Z,150826.48
2018-09-22T05:36:23.115Z,151136.22
2018-09-22T05:38:53.795Z,151163.84
2018-09-22T05:41:23.849Z,151426.14
2018-09-22T05:43:55.100Z,151630.84
2018-09-22T05:46:25.274Z,151985.22
2018-09-22T05:48:55.706Z,152084.55
2018-09-22T05:51:25.865Z,152138.59
2018-09-22T05:53:55.843Z,152110.97
2018-09-22T05:56:27.343Z,152099.66
2018-09-22T05:58:57.434Z,152134.83
2018-09-22T06:01:27.842Z,152258.11
2018-09-22T06:03:58.067Z,152337.41
2018-09-22T06:06:29.112Z,152124.78
2018-09-22T06:09:01.912Z,152015.39
2018-09-22T06:11:32.093Z,152197.77
2018-09-22T06:14:02.273Z,152451.89
2018-09-22T06:16:32.612Z,152641.98
2018-09-22T06:19:02.752Z,152876.22
2018-09-22T06:21:35.145Z,152993.36
2018-09-22T06:24:06.493Z,152835.88
2018-09-22T06:26:37.663Z,152901.37
2018-09-22T06:29:07.810Z,153101.77
2018-09-22T06:31:44.676Z,153097.89
2018-09-22T06:34:19.228Z,153084.06
2018-09-22T06:36:50.434Z,152931.63
2018-09-22T06:39:20.580Z,152990.84
2018-09-22T06:41:50.897Z,152493.41
2018-09-22T06:44:21.092Z,152243.03
2018-09-22T06:46:51.488Z,151931.19
2018-09-22T06:49:21.399Z,151618.25
2018-09-22T06:51:51.637Z,151143.75
2018-09-22T06:54:22.539Z,150808.91
2018-09-22T06:56:52.579Z,150739.95
2018-09-22T06:59:22.574Z,150579.58
2018-09-22T07:01:52.872Z,150441.78
2018-09-22T07:04:23.197Z,150342.88
2018-09-22T07:06:55.770Z,150181.36
2018-09-22T07:09:27.391Z,150092.48
2018-09-22T07:11:57.454Z,150042.45
2018-09-22T07:14:27.776Z,149938.63
2018-09-22T07:16:59.215Z,149898.59
2018-09-22T07:19:29.391Z,149891.09
2018-09-22T07:22:04.375Z,149874.87
2018-09-22T07:24:34.839Z,149853.59
2018-09-22T07:27:04.824Z,149826.06
2018-09-22T07:29:35.079Z,149823.56
2018-09-22T07:32:05.118Z,149783.56
2018-09-22T07:34:36.890Z,149758.53
2018-09-22T07:37:08.050Z,149678.59
2018-09-22T07:39:38.050Z,149706.06
2018-09-22T07:42:08.742Z,149723.58
2018-09-22T07:44:38.917Z,149741.06
2018-09-22T07:47:11.028Z,149719.84
2018-09-22T07:49:41.177Z,149733.56
2018-09-22T07:52:11.218Z,149767.33
2018-09-22T07:54:41.157Z,149762.28
2018-09-22T07:57:11.763Z,149782.31
2018-09-22T07:59:42.675Z,149741.06
2018-09-22T08:02:13.655Z,149746.06
2018-09-22T08:04:44.034Z,149734.81
2018-09-22T08:07:15.123Z,149722.33
2018-09-22T08:09:45.240Z,149707.31
2018-09-22T08:12:16.119Z,149711.05
2018-09-22T08:14:47.425Z,149731.08
2018-09-22T08:17:17.569Z,149701.06
2018-09-22T08:19:47.741Z,149743.56
2018-09-22T08:22:19.148Z,149774.81
2018-09-22T08:24:50.386Z,149783.56
2018-09-22T08:27:20.666Z,149756.03
2018-09-22T08:29:50.618Z,149683.59
2018-09-22T08:32:20.767Z,149706.06
2018-09-22T08:34:50.903Z,149694.81
2018-09-22T08:37:21.398Z,149741.06
2018-09-22T08:39:51.743Z,149751.05
2018-09-22T08:42:22.756Z,149764.78
2018-09-22T08:44:52.983Z,149763.53
2018-09-22T08:47:23.345Z,149726.08
2018-09-22T08:49:54.450Z,149666.02
2018-09-22T08:52:24.606Z,149731.08
2018-09-22T08:54:54.896Z,149748.56
2018-09-22T08:57:25.794Z,149796.05
2018-09-22T08:59:56.190Z,149818.58
2018-09-22T09:05:40.128Z,149767.33
2018-09-22T09:08:10.646Z,149778.56
2018-09-22T09:10:42.438Z,149793.55
2018-09-22T09:13:12.581Z,149799.78
2018-09-22T09:15:42.656Z,149818.58
2018-09-22T09:18:13.775Z,149834.81
2018-09-22T09:20:44.028Z,149844.84
2018-09-22T09:23:14.406Z,149869.88
2018-09-22T09:25:44.736Z,149868.63
2018-09-22T09:28:14.832Z,149873.63
2018-09-22T09:30:45.144Z,149846.09
2018-09-22T09:33:16.441Z,149833.56
2018-09-22T09:35:46.480Z,149838.55
2018-09-22T09:38:16.863Z,149821.06
2018-09-22T09:40:46.931Z,149809.78
2018-09-22T09:43:17.088Z,149821.06
2018-09-22T09:45:47.081Z,149836.06
2018-09-22T09:48:17.285Z,149861.08
2018-09-22T09:50:48.362Z,149864.87
2018-09-22T09:53:18.481Z,149846.09
2018-09-22T09:55:48.788Z,149849.84
2018-09-22T09:58:18.816Z,149856.09
2018-09-22T10:00:50.102Z,149838.55
2018-09-22T10:03:20.947Z,149783.56
2018-09-22T10:05:51.063Z,149778.56
2018-09-22T10:08:22.133Z,149809.78
2018-09-22T10:10:53.281Z,149824.81
2018-09-22T10:13:23.840Z,149828.56
2018-09-22T10:15:54.187Z,149863.63
2018-09-22T10:18:24.586Z,149861.08
2018-09-22T10:20:54.826Z,149864.87
2018-09-22T10:23:24.968Z,149897.34
2018-09-22T10:25:56.010Z,149884.86
2018-09-22T10:28:26.390Z,149883.61
2018-09-22T10:30:56.630Z,149863.63
2018-09-22T10:33:26.868Z,149882.36
2018-09-22T10:35:56.962Z,149869.88
2018-09-22T10:38:28.972Z,149881.11
2018-09-22T10:40:59.254Z,149807.28
2018-09-22T10:43:29.565Z,149836.06
2018-09-22T10:46:01.728Z,149824.81
2018-09-22T10:48:35.577Z,149803.53
2018-09-22T10:51:05.795Z,149796.05
2018-09-22T10:53:35.835Z,149781.06
2018-09-22T10:56:06.024Z,149771.08
2018-09-22T10:58:36.075Z,149731.08
2018-09-22T11:01:07.450Z,149713.55
2018-09-22T11:03:37.858Z,149736.06
2018-09-22T11:06:07.935Z,149721.08
2018-09-22T11:08:38.261Z,149732.31
2018-09-22T11:11:08.373Z,149713.55
2018-09-22T11:13:38.606Z,149699.81
2018-09-22T11:16:09.408Z,149712.30
2018-09-22T11:18:39.629Z,149754.80
2018-09-22T11:21:09.793Z,149736.06
2018-09-22T11:23:40.959Z,149694.81
2018-09-22T11:26:10.965Z,149733.56
2018-09-22T11:28:42.298Z,149747.31
2018-09-22T11:31:12.420Z,149758.53
2018-09-22T11:33:42.863Z,149708.55
2018-09-22T11:36:13.103Z,149726.08
2018-09-22T11:38:43.187Z,149667.27
2018-09-22T11:41:14.451Z,149672.34
2018-09-22T11:43:45.986Z,149678.59
2018-09-22T11:46:16.270Z,149677.34
2018-09-22T11:48:47.327Z,149631.06
2018-09-22T11:51:17.446Z,149661.03
2018-09-22T11:53:47.531Z,149643.55
2018-09-22T11:56:17.668Z,149666.02
2018-09-22T11:58:48.072Z,149676.09
2018-09-22T12:01:18.971Z,149658.53
2018-09-22T12:03:49.342Z,149688.58
2018-09-22T12:06:19.641Z,149687.33
2018-09-22T12:08:49.587Z,149651.03
2018-09-22T12:11:19.697Z,149636.06
2018-09-22T12:13:50.720Z,149691.08
2018-09-22T12:16:20.891Z,149683.59
2018-09-22T12:18:51.016Z,149692.33
2018-09-22T12:21:21.173Z,149697.31
2018-09-22T12:23:51.292Z,149676.09
2018-09-22T12:26:25.590Z,149687.33
2018-09-22T12:28:56.096Z,149712.30
2018-09-22T12:31:26.085Z,149698.56
2018-09-22T12:33:57.176Z,149706.06
2018-09-22T12:36:27.235Z,149678.59
2018-09-22T12:38:57.589Z,149691.08
2018-09-22T12:41:27.520Z,149681.09
2018-09-22T12:43:57.479Z,149688.58
2018-09-22T12:46:28.939Z,149696.06
2018-09-22T12:48:59.887Z,149707.31
2018-09-22T12:51:29.658Z,149701.06
2018-09-22T12:53:59.690Z,149708.55
2018-09-22T12:56:29.778Z,149702.31
2018-09-22T12:59:00.769Z,149683.59
2018-09-22T13:01:30.815Z,149688.58
2018-09-22T13:04:01.772Z,149704.81
2018-09-22T13:06:33.048Z,149703.56
2018-09-22T13:09:04.129Z,149644.80
2018-09-22T13:11:34.691Z,149662.27
2018-09-22T13:14:04.912Z,149682.34
2018-09-22T13:16:35.102Z,149684.83
2018-09-22T13:19:04.990Z,149669.81
2018-09-22T13:21:34.993Z,149659.78
2018-09-22T13:24:05.212Z,149674.84
2018-09-22T13:26:35.392Z,149684.83
2018-09-22T13:29:05.403Z,149626.08
2018-09-22T13:31:35.758Z,149657.28
2018-09-22T13:34:06.232Z,149646.05
2018-09-22T13:36:36.589Z,149654.78
2018-09-22T13:39:09.708Z,149662.27
2018-09-22T13:41:39.863Z,149668.50
2018-09-22T13:44:10.423Z,149666.02
2018-09-22T13:46:40.962Z,149666.02
2018-09-22T13:49:11.668Z,149643.55
2018-09-22T13:51:41.723Z,149624.83
2018-09-22T13:54:11.880Z,149613.55
2018-09-22T13:56:42.035Z,149623.53
2018-09-22T13:59:12.337Z,149626.08
2018-09-22T14:01:42.547Z,149628.56
2018-09-22T14:04:13.513Z,149626.08
2018-09-22T14:06:44.302Z,149627.31
2018-09-22T14:09:14.832Z,149617.28
2018-09-22T14:11:45.114Z,149591.08
2018-09-22T14:14:15.260Z,149598.56
2018-09-22T14:16:45.453Z,149578.59
2018-09-22T14:19:15.669Z,149589.83
2018-09-22T14:21:45.984Z,149596.06
2018-09-22T14:24:18.188Z,149578.59
2018-09-22T14:26:51.564Z,149578.59
2018-09-22T14:29:21.779Z,149557.34
2018-09-22T14:31:51.946Z,149559.83
2018-09-22T14:34:22.985Z,149541.11
2018-09-22T14:36:54.246Z,149546.11
2018-09-22T14:39:24.686Z,149541.11
2018-09-22T14:41:54.902Z,149534.88
2018-09-22T14:44:25.767Z,149503.64
2018-09-22T14:46:57.304Z,149501.14
2018-09-22T14:49:28.668Z,149498.64
2018-09-22T14:52:03.360Z,149476.09
2018-09-22T14:54:33.625Z,149477.34
2018-09-22T14:57:03.731Z,149451.14
2018-09-22T14:59:33.742Z,149429.88
2018-09-22T15:02:04.154Z,149433.63
2018-09-22T15:04:34.143Z,149424.89
2018-09-22T15:07:04.174Z,149412.42
2018-09-22T15:09:34.303Z,149403.69
2018-09-22T15:12:04.769Z,149393.70
2018-09-22T15:14:34.956Z,149362.47
2018-09-22T15:17:05.444Z,149356.25
2018-09-22T15:19:35.942Z,149342.53
2018-09-22T15:22:06.109Z,149331.25
2018-09-22T15:24:36.433Z,149316.28
2018-09-22T15:27:06.659Z,149298.78
2018-09-22T15:29:36.908Z,149282.52
2018-09-22T15:32:07.114Z,149263.81
2018-09-22T15:34:37.359Z,149247.61
2018-09-22T15:37:08.264Z,149231.34
2018-09-22T15:39:39.162Z,149215.14
2018-09-22T15:42:09.475Z,149203.92
2018-09-22T15:44:39.838Z,149183.94
2018-09-22T15:47:10.048Z,149165.23
2018-09-22T15:49:40.518Z,149147.73
2018-09-22T15:52:10.859Z,149121.56
2018-09-22T15:54:41.865Z,149107.80
2018-09-22T15:57:12.644Z,149071.61
2018-09-22T15:59:42.951Z,149042.89
2018-09-22T16:02:13.009Z,149031.69
2018-09-22T16:04:43.396Z,149011.75
2018-09-22T16:07:13.638Z,148988.03
2018-09-22T16:09:43.644Z,148968.09
2018-09-22T16:12:17.004Z,148946.86
2018-09-22T16:14:48.285Z,148924.44
2018-09-22T16:17:18.358Z,148913.12
2018-09-22T16:19:48.751Z,148885.73
2018-09-22T16:22:21.739Z,148862.02
2018-09-22T16:24:53.492Z,148842.09
2018-09-22T16:27:23.941Z,148849.56
2018-09-22T16:29:54.148Z,148813.41
2018-09-22T16:32:25.288Z,148782.27
2018-09-22T16:34:56.082Z,148764.78
2018-09-22T16:37:26.463Z,148767.28
2018-09-22T16:39:57.463Z,148756.06
2018-09-22T16:42:27.837Z,148732.41
2018-09-22T16:44:58.269Z,148742.38
2018-09-22T16:47:28.715Z,148737.39
2018-09-22T16:49:58.733Z,148734.91
2018-09-22T16:52:29.037Z,148738.64
2018-09-22T16:54:59.427Z,148731.17
2018-09-22T16:57:29.665Z,148722.41
2018-09-22T17:00:01.091Z,148717.42
2018-09-22T17:02:31.988Z,148723.66
2018-09-22T17:05:02.847Z,148697.47
2018-09-22T17:07:33.043Z,148709.91
2018-09-22T17:10:04.088Z,148708.66
2018-09-22T17:12:34.402Z,148699.95
2018-09-22T17:15:07.156Z,148691.23
2018-09-22T17:17:37.337Z,148668.78
2018-09-22T17:20:07.638Z,148663.80
2018-09-22T17:22:38.323Z,148677.50
2018-09-22T17:25:09.272Z,148671.27
2018-09-22T17:27:40.160Z,148645.13
2018-09-22T17:30:11.157Z,148640.16
2018-09-22T17:32:42.102Z,148647.63
2018-09-22T17:35:12.971Z,148640.16
2018-09-22T17:37:44.771Z,148613.97
2018-09-22T17:40:16.002Z,148599.03
2018-09-22T17:42:47.047Z,148604.00
2018-09-22T17:45:17.855Z,148611.47
2018-09-22T17:47:48.012Z,148602.77
2018-09-22T17:50:18.550Z,148589.08
2018-09-22T17:52:48.692Z,148572.84
2018-09-22T17:55:18.935Z,148582.81
2018-09-22T17:57:49.048Z,148581.56
2018-09-22T18:00:19.098Z,148556.67
2018-09-22T18:02:49.312Z,148562.89
2018-09-22T18:05:21.449Z,148547.97
2018-09-22T18:07:52.487Z,148530.50
2018-09-22T18:10:23.929Z,148518.05
2018-09-22T18:12:54.826Z,148531.73
2018-09-22T18:15:26.869Z,148500.58
2018-09-22T18:17:57.176Z,148495.61
2018-09-22T18:20:29.153Z,148491.87
2018-09-22T18:22:59.288Z,148495.61
2018-09-22T18:25:29.654Z,148490.63
2018-09-22T18:27:59.774Z,148480.62
2018-09-22T18:30:32.266Z,148453.25
2018-09-22T18:33:02.575Z,148452.02
2018-09-22T18:35:32.813Z,148430.81
2018-09-22T18:38:03.200Z,148453.25
2018-09-22T18:40:35.008Z,148458.23
2018-09-22T18:43:05.061Z,148466.94
2018-09-22T18:45:36.077Z,148503.06
2018-09-22T18:48:06.148Z,148513.06
2018-09-22T18:50:36.164Z,148481.88
2018-09-22T18:53:06.487Z,148463.22
2018-09-22T18:55:37.066Z,148463.22
2018-09-22T18:58:07.523Z,148455.75
2018-09-22T19:00:37.603Z,148458.23
2018-09-22T19:03:07.792Z,148463.22
2018-09-22T19:05:37.967Z,148448.28
2018-09-22T19:08:08.028Z,148458.23
2018-09-22T19:10:40.107Z,148447.03
2018-09-22T19:13:12.346Z,148480.62
2018-09-22T19:15:47.418Z,148478.14
2018-09-22T19:19:25.560Z,148469.44
2018-09-22T19:21:58.750Z,148463.22
2018-09-22T19:24:36.185Z,148444.55
2018-09-22T19:27:11.051Z,148434.55
2018-09-22T19:29:46.441Z,148428.33
2018-09-22T19:32:20.469Z,148432.06
2018-09-22T19:34:54.371Z,148445.80
2018-09-22T19:37:37.200Z,148425.84
2018-09-22T19:40:41.726Z,148410.91
2018-09-22T19:43:21.226Z,148409.67
2018-09-22T19:45:52.527Z,148420.88
2018-09-22T19:48:27.601Z,148410.91
2018-09-22T19:51:08.127Z,148399.72
2018-09-22T19:53:40.350Z,148390.97
2018-09-22T19:56:10.430Z,148403.45
2018-09-22T19:58:40.651Z,148403.45
2018-09-22T20:01:10.891Z,148428.33
2018-09-22T20:03:41.713Z,148442.06
2018-09-22T20:06:12.255Z,148447.03
2018-09-22T20:08:42.475Z,148448.28
2018-09-22T20:11:13.639Z,148465.69
2018-09-22T20:13:44.662Z,148485.61
2018-09-22T20:16:14.799Z,148495.61
2018-09-22T20:18:44.984Z,148483.11
2018-09-22T20:21:15.321Z,148485.61
2018-09-22T20:23:45.525Z,148496.84
2018-09-22T20:26:15.546Z,148521.78
2018-09-22T20:28:46.313Z,148539.25
2018-09-22T20:31:16.351Z,148526.75
2018-09-22T20:33:46.354Z,148547.97
2018-09-22T20:36:16.491Z,148556.67
2018-09-22T20:38:46.689Z,148556.67
2018-09-22T20:41:16.935Z,148575.34
2018-09-22T20:43:47.358Z,148550.45
2018-09-22T20:46:17.430Z,148567.88
2018-09-22T20:48:47.712Z,148572.84
2018-09-22T20:51:18.016Z,148575.34
2018-09-22T20:53:48.413Z,148567.88
2018-09-22T20:56:18.397Z,148549.20
2018-09-22T20:58:49.435Z,148516.81
2018-09-22T21:01:19.631Z,148503.06
2018-09-22T21:03:49.865Z,148468.19
2018-09-22T21:06:21.067Z,148468.19
2018-09-22T21:08:52.145Z,148470.67
2018-09-22T21:11:22.235Z,148449.53
2018-09-22T21:13:53.841Z,148450.77
2018-09-22T21:16:24.004Z,148438.28
2018-09-22T21:18:54.599Z,148403.45
2018-09-22T21:21:25.552Z,148343.66
2018-09-22T21:23:55.978Z,148308.84
2018-09-22T21:26:26.355Z,148291.37
2018-09-22T21:28:56.680Z,148287.66
2018-09-22T21:31:26.934Z,148306.34
2018-09-22T21:33:56.913Z,148300.12
2018-09-22T21:36:27.837Z,148311.33
2018-09-22T21:38:58.869Z,148298.84
2018-09-22T21:41:29.066Z,148267.72
2018-09-22T21:44:00.407Z,148283.92
2018-09-22T21:46:30.701Z,148291.37
2018-09-22T21:49:01.473Z,148317.55
2018-09-22T21:51:32.174Z,148342.41
2018-09-22T21:54:02.321Z,148363.61
2018-09-22T21:56:32.572Z,148371.06
2018-09-22T21:59:02.718Z,148368.58
2018-09-22T22:01:37.701Z,148367.34
2018-09-22T22:04:08.117Z,148366.09
2018-09-22T22:06:38.693Z,148372.31
2018-09-22T22:09:12.313Z,148392.20
2018-09-22T22:11:42.503Z,148374.80
2018-09-22T22:14:12.632Z,148362.36
2018-09-22T22:16:42.939Z,148373.56
2018-09-22T22:19:13.518Z,148368.58
2018-09-22T22:21:43.751Z,148369.83
2018-09-22T22:24:13.921Z,148383.50
2018-09-22T22:26:43.902Z,148358.62
2018-09-22T22:29:14.848Z,148372.31
2018-09-22T22:31:45.145Z,148372.31
2018-09-22T22:34:15.408Z,148372.31
2018-09-22T22:36:45.294Z,148339.92
2018-09-22T22:39:16.260Z,148308.84
2018-09-22T22:41:46.712Z,148301.37
2018-09-22T22:44:21.039Z,148273.92
2018-09-22T22:46:51.456Z,148249.02
2018-09-22T22:49:24.467Z,148220.42
2018-09-22T22:51:58.300Z,148226.63
2018-09-22T22:54:29.246Z,148227.88
2018-09-22T22:56:59.520Z,148221.66
2018-09-22T22:59:30.677Z,148181.83
2018-09-22T23:02:00.977Z,148165.67
2018-09-22T23:04:31.454Z,148186.80
2018-09-22T23:07:01.419Z,148245.28
2018-09-22T23:09:33.275Z,148293.88
2018-09-22T23:12:03.284Z,148339.92
2018-09-22T23:14:34.465Z,148363.61
2018-09-22T23:17:04.856Z,148404.69
2018-09-22T23:19:35.280Z,148452.02
2018-09-22T23:22:06.328Z,148480.62
2018-09-22T23:24:36.713Z,148511.83
2018-09-22T23:27:06.920Z,148530.50
2018-09-22T23:29:36.949Z,148580.31
2018-09-22T23:32:06.874Z,148605.25
2018-09-22T23:34:38.015Z,148645.13
2018-09-22T23:37:08.959Z,148662.56
2018-09-22T23:39:40.089Z,148668.78
2018-09-22T23:42:10.364Z,148704.92
2018-09-22T23:44:41.599Z,148712.41
2018-09-22T23:47:11.562Z,148726.19
2018-09-22T23:49:43.354Z,148756.06
2018-09-22T23:52:13.511Z,148758.56
2018-09-22T23:54:44.727Z,148768.53
2018-09-22T23:57:15.051Z,148768.53
2018-09-22T23:59:45.278Z,148798.45
